Pine Island, Minnesota
Current Conditions -  °F | °C
As of 12:14 PM on Monday 26 Jan 2015 (Local Time) from K9MN Reporting Station
Overcast Overcast  
Wind Chill: 30°   Ceiling: 1400
Heat Index: 38°   Visibility: 10mi
Dew Point: 31°   Wind: 13mph
Humidity: 77%   Direction: 280°W
Pressure: 29.71"   Gusts: 21mph
Location:  44.2°N, 92.65°W
Report Text: K9MN 261814Z AUTO 28011G18KT 230V300 10SM OVC014 03/00 A2971 RMK AO1 T00321004
Loading
Personal Weather Stations






























Interactive Weather Map New forecast layout! Learn more

10-Day Weather Forecast

Advertisements
Track Severe Weather on mobile